Time;durP1;ratioP1;P1;durP2;ratioP2;P2;SDS_P1;SDS_P2;PMS_P1;PMS_P2;Temp;Humidity;BMP_temperature;BMP_pressure;BME280_temperature;BME280_humidity;BME280_pressure;Samples;Min_cycle;Max_cycle;Signal;HPM_P1;HPM_P2
2023/07/25 00:00:36;;;;;;;6.70;3.42;;;21.50;76.60;;;;;;5016095;28;20077;-61
2023/07/25 00:03:03;;;;;;;5.80;3.63;;;21.40;76.70;;;;;;5016978;28;20033;-60
2023/07/25 00:05:29;;;;;;;10.23;4.80;;;21.40;76.80;;;;;;5016262;28;20034;-62
2023/07/25 00:07:54;;;;;;;8.82;4.05;;;21.40;76.90;;;;;;5015804;28;20057;-61
2023/07/25 00:10:21;;;;;;;9.63;3.80;;;21.40;77.00;;;;;;5016278;28;20057;-59
2023/07/25 00:12:52;;;;;;;7.82;4.00;;;21.40;77.00;;;;;;5016154;28;20026;-63
2023/07/25 00:15:19;;;;;;;10.43;4.40;;;21.40;76.90;;;;;;5015806;28;20448;-60
2023/07/25 00:17:46;;;;;;;8.00;4.22;;;21.40;76.70;;;;;;5016118;28;20470;-61
2023/07/25 00:20:17;;;;;;;8.32;3.97;;;21.40;76.70;;;;;;5015808;28;20018;-62
2023/07/25 00:22:43;;;;;;;8.75;4.30;;;21.40;76.60;;;;;;5016189;28;20440;-60
2023/07/25 00:25:09;;;;;;;6.18;3.53;;;21.30;76.60;;;;;;5016185;28;20030;-61
2023/07/25 00:27:35;;;;;;;8.07;3.65;;;21.40;76.50;;;;;;5015991;28;20068;-63
2023/07/25 00:30:03;;;;;;;7.18;3.90;;;21.40;76.50;;;;;;5015913;28;20093;-61
2023/07/25 00:32:29;;;;;;;8.15;3.90;;;21.40;76.40;;;;;;5015600;28;20116;-64
2023/07/25 00:34:56;;;;;;;6.57;3.60;;;21.40;76.30;;;;;;5016077;28;20173;-64
2023/07/25 00:37:22;;;;;;;7.03;4.00;;;21.40;76.20;;;;;;5015482;28;20160;-63
2023/07/25 00:39:53;;;;;;;7.43;3.78;;;21.40;76.30;;;;;;5015761;28;20120;-61
2023/07/25 00:42:19;;;;;;;8.98;4.07;;;21.40;76.20;;;;;;5015714;28;20030;-62
2023/07/25 00:44:45;;;;;;;8.43;4.00;;;21.30;76.40;;;;;;5016182;28;20043;-63
2023/07/25 00:49:45;;;;;;;11.07;3.97;;;21.30;76.40;;;;;;5015859;28;20479;-61
2023/07/25 00:52:14;;;;;;;6.20;3.45;;;21.30;76.50;;;;;;5015371;28;20026;-63
2023/07/25 00:54:48;;;;;;;9.23;4.60;;;21.30;76.50;;;;;;5015568;28;20073;-64
2023/07/25 00:57:16;;;;;;;7.22;3.80;;;21.30;76.60;;;;;;5014323;28;20037;-61
2023/07/25 00:59:43;;;;;;;7.65;3.85;;;21.30;76.80;;;;;;5015268;28;20033;-63
2023/07/25 01:02:11;;;;;;;8.25;4.10;;;21.20;76.70;;;;;;5015445;28;20117;-63
2023/07/25 01:04:38;;;;;;;6.70;3.88;;;21.20;76.80;;;;;;5020561;28;20036;-63
2023/07/25 01:07:08;;;;;;;6.60;3.70;;;21.20;76.80;;;;;;5021705;28;20460;-64
2023/07/25 01:09:42;;;;;;;6.03;3.85;;;21.20;76.90;;;;;;5022004;28;20033;-62
2023/07/25 01:12:09;;;;;;;6.70;3.70;;;21.30;77.00;;;;;;5022320;28;20451;-63
2023/07/25 01:14:36;;;;;;;6.43;3.70;;;21.30;76.90;;;;;;5021690;28;20029;-62
2023/07/25 01:17:17;;;;;;;8.63;3.80;;;21.30;76.90;;;;;;5021644;28;20064;-60
2023/07/25 01:19:46;;;;;;;8.27;4.40;;;21.40;76.80;;;;;;5022011;28;20030;-60
2023/07/25 01:22:13;;;;;;;7.68;4.22;;;21.40;76.80;;;;;;5020583;28;20025;-60
2023/07/25 01:24:44;;;;;;;8.05;4.40;;;21.30;76.60;;;;;;5021860;28;20050;-65
2023/07/25 01:27:11;;;;;;;8.45;3.92;;;21.30;76.60;;;;;;5021507;28;20527;-64
2023/07/25 01:29:37;;;;;;;11.15;5.28;;;21.30;76.60;;;;;;5021834;28;20068;-62
2023/07/25 01:32:03;;;;;;;7.75;4.40;;;21.30;76.80;;;;;;5021860;28;20375;-63
2023/07/25 01:34:29;;;;;;;9.02;4.63;;;21.20;76.70;;;;;;5021540;28;20033;-63
2023/07/25 01:36:59;;;;;;;8.43;4.43;;;21.10;76.70;;;;;;5021424;28;20034;-61
2023/07/25 01:39:25;;;;;;;7.68;4.25;;;21.00;76.80;;;;;;5020498;28;20026;-64
2023/07/25 01:41:51;;;;;;;8.90;4.22;;;21.00;76.90;;;;;;5021926;28;20147;-63
2023/07/25 01:44:17;;;;;;;8.65;4.20;;;21.00;77.00;;;;;;5021714;28;20056;-61
2023/07/25 01:46:43;;;;;;;7.03;3.90;;;21.00;77.10;;;;;;5021388;28;20033;-62
2023/07/25 01:49:13;;;;;;;7.95;3.42;;;20.90;77.20;;;;;;5021690;28;20057;-64
2023/07/25 01:51:39;;;;;;;7.40;3.90;;;21.00;77.20;;;;;;5021290;28;20045;-62
2023/07/25 01:54:06;;;;;;;8.30;4.00;;;20.90;77.30;;;;;;5021284;28;20025;-63
2023/07/25 01:56:32;;;;;;;12.35;4.00;;;20.90;77.30;;;;;;5021276;28;20084;-62
2023/07/25 01:58:58;;;;;;;8.27;4.15;;;20.90;77.40;;;;;;5021337;28;20395;-63
2023/07/25 02:01:27;;;;;;;8.25;3.72;;;20.90;77.50;;;;;;5021499;28;20359;-63
2023/07/25 02:03:54;;;;;;;9.75;4.35;;;20.90;77.40;;;;;;5021793;28;20063;-63
2023/07/25 02:06:21;;;;;;;6.43;3.80;;;20.90;77.30;;;;;;5020972;28;20084;-62
2023/07/25 02:08:47;;;;;;;8.95;4.25;;;20.90;77.30;;;;;;5021522;28;20380;-65
2023/07/25 02:11:13;;;;;;;9.65;4.00;;;20.90;77.20;;;;;;5021177;28;20021;-64
2023/07/25 02:13:39;;;;;;;8.18;3.88;;;21.00;77.20;;;;;;5021720;28;20088;-62
2023/07/25 02:16:05;;;;;;;7.70;3.72;;;21.00;77.20;;;;;;5017921;28;20021;-62
2023/07/25 02:18:33;;;;;;;8.88;4.00;;;21.00;77.10;;;;;;5018089;28;20068;-64
2023/07/25 02:21:09;;;;;;;9.75;4.10;;;21.00;77.20;;;;;;5018454;28;20313;-64
2023/07/25 02:23:38;;;;;;;6.70;3.83;;;21.00;77.00;;;;;;5018501;28;20444;-61
2023/07/25 02:26:04;;;;;;;8.55;4.00;;;21.00;77.00;;;;;;5017841;28;20041;-63
2023/07/25 02:28:33;;;;;;;6.55;3.67;;;20.90;77.10;;;;;;5018449;28;20050;-64
2023/07/25 02:31:01;;;;;;;7.72;3.97;;;20.90;77.10;;;;;;5017820;28;20030;-62
2023/07/25 02:33:27;;;;;;;11.35;4.45;;;20.90;77.20;;;;;;5017784;28;20364;-60
2023/07/25 02:35:57;;;;;;;9.40;4.63;;;20.90;77.20;;;;;;5017718;28;20026;-62
2023/07/25 02:40:55;;;;;;;7.25;4.25;;;20.90;77.10;;;;;;5018057;28;20037;-61
2023/07/25 02:43:26;;;;;;;8.15;4.20;;;20.90;77.20;;;;;;5017611;28;20305;-62
2023/07/25 02:45:52;;;;;;;7.70;4.68;;;20.90;77.20;;;;;;5017504;28;20049;-62
2023/07/25 02:48:19;;;;;;;7.65;4.45;;;20.90;77.20;;;;;;5017509;28;20018;-61
2023/07/25 02:50:45;;;;;;;9.15;4.72;;;20.90;77.40;;;;;;5017497;28;20038;-63
2023/07/25 02:53:12;;;;;;;10.05;4.20;;;20.90;77.40;;;;;;5018048;28;20018;-66
2023/07/25 02:55:53;;;;;;;8.60;4.43;;;20.90;77.40;;;;;;5017329;28;20164;-64
2023/07/25 02:58:20;;;;;;;8.88;4.60;;;20.90;77.40;;;;;;5017344;28;20052;-65
2023/07/25 03:03:17;;;;;;;8.93;4.28;;;20.90;77.40;;;;;;5018058;28;20117;-63
2023/07/25 03:06:00;;;;;;;7.60;3.92;;;20.90;77.50;;;;;;5016036;28;20026;-63
2023/07/25 03:08:26;;;;;;;8.25;4.13;;;20.90;77.50;;;;;;5017761;28;20022;-64
2023/07/25 03:11:00;;;;;;;8.40;4.75;;;20.90;77.30;;;;;;5017060;28;20329;-63
2023/07/25 03:13:28;;;;;;;7.40;3.83;;;20.90;77.40;;;;;;5017600;28;20049;-64
2023/07/25 03:18:20;;;;;;;6.43;3.80;;;20.90;77.50;;;;;;5017477;28;20114;-61
2023/07/25 03:20:46;;;;;;;9.38;3.90;;;20.90;77.50;;;;;;5016886;28;20018;-62
2023/07/25 03:23:12;;;;;;;6.90;3.75;;;20.90;77.50;;;;;;5016981;28;20022;-62
2023/07/25 03:25:37;;;;;;;7.63;3.85;;;20.90;77.50;;;;;;5016852;28;20426;-65
2023/07/25 03:28:09;;;;;;;6.65;4.00;;;20.90;77.60;;;;;;5016286;28;20093;-65
2023/07/25 03:30:35;;;;;;;6.28;3.75;;;20.90;77.60;;;;;;5016716;28;20057;-62
2023/07/25 03:33:06;;;;;;;8.35;4.10;;;21.00;77.60;;;;;;5017201;28;20026;-62
2023/07/25 03:38:00;;;;;;;7.13;3.78;;;20.90;77.80;;;;;;5017385;28;20033;-60
2023/07/25 03:40:28;;;;;;;5.93;3.60;;;21.00;77.80;;;;;;5016542;28;20022;-63
2023/07/25 03:47:44;;;;;;;10.02;4.75;;;21.10;77.80;;;;;;5017025;28;20041;-62
2023/07/25 03:50:10;;;;;;;8.52;5.05;;;21.20;78.00;;;;;;5016483;28;20068;-65
2023/07/25 03:52:46;;;;;;;11.73;5.40;;;21.40;77.90;;;;;;5016374;28;20030;-61
2023/07/25 03:55:12;;;;;;;9.32;5.32;;;21.60;77.80;;;;;;5016742;28;20084;-63
2023/07/25 03:57:37;;;;;;;9.02;5.40;;;21.60;77.50;;;;;;5016793;28;20030;-64
2023/07/25 04:00:04;;;;;;;12.25;5.97;;;21.70;77.30;;;;;;5016268;28;20022;-60
2023/07/25 04:02:30;;;;;;;9.10;5.18;;;21.70;77.30;;;;;;5016140;28;20034;-64
2023/07/25 04:04:56;;;;;;;9.93;5.78;;;21.80;77.10;;;;;;5016168;28;20026;-63
2023/07/25 04:07:22;;;;;;;11.60;5.50;;;21.70;76.90;;;;;;5015845;28;20164;-64
2023/07/25 04:09:49;;;;;;;9.07;5.25;;;21.70;76.90;;;;;;5016577;28;20434;-61
2023/07/25 04:12:15;;;;;;;8.63;5.15;;;21.60;77.10;;;;;;5016568;28;20044;-63
2023/07/25 04:14:41;;;;;;;9.32;5.40;;;21.60;77.30;;;;;;5016529;28;20026;-62
2023/07/25 04:17:07;;;;;;;9.80;6.35;;;21.70;77.40;;;;;;5015931;28;20018;-62
2023/07/25 04:19:33;;;;;;;12.10;7.65;;;21.70;77.40;;;;;;5016158;28;20092;-60
2023/07/25 04:21:59;;;;;;;14.88;7.68;;;21.80;77.40;;;;;;5015811;28;20498;-63
2023/07/25 04:24:25;;;;;;;14.35;6.72;;;21.70;77.50;;;;;;5016379;28;20026;-62
2023/07/25 04:26:51;;;;;;;10.57;5.82;;;21.70;77.70;;;;;;5015962;28;20353;-63
2023/07/25 04:29:17;;;;;;;12.90;5.88;;;21.60;77.60;;;;;;5016347;28;20022;-60
2023/07/25 04:31:44;;;;;;;11.73;5.43;;;21.50;77.80;;;;;;5015722;28;20034;-64
2023/07/25 04:34:10;;;;;;;9.95;4.97;;;21.40;77.90;;;;;;5015614;28;20360;-62
2023/07/25 04:36:37;;;;;;;9.90;4.13;;;21.40;78.10;;;;;;5015575;28;20080;-63
2023/07/25 04:39:02;;;;;;;8.48;3.63;;;21.30;78.20;;;;;;5015222;28;20076;-63
2023/07/25 04:41:28;;;;;;;6.35;2.88;;;21.20;78.20;;;;;;5015755;28;20038;-61
2023/07/25 04:43:54;;;;;;;6.97;2.90;;;21.20;78.30;;;;;;5014567;28;20439;-64
2023/07/25 04:46:20;;;;;;;9.43;3.00;;;21.10;78.40;;;;;;5015436;28;20057;-62
2023/07/25 04:48:46;;;;;;;5.05;2.90;;;21.00;78.30;;;;;;5014549;28;20018;-63
2023/07/25 04:51:13;;;;;;;7.35;3.08;;;21.00;78.40;;;;;;5016054;28;20040;-62
2023/07/25 04:53:39;;;;;;;6.45;3.15;;;21.00;78.50;;;;;;5015418;28;20030;-62
2023/07/25 04:56:05;;;;;;;6.05;2.83;;;20.90;78.60;;;;;;5015296;28;20037;-65
2023/07/25 04:58:31;;;;;;;3.85;2.70;;;20.90;78.70;;;;;;5015554;28;20108;-63
2023/07/25 05:00:57;;;;;;;5.97;3.30;;;20.90;78.70;;;;;;5015669;28;20033;-63
2023/07/25 05:03:25;;;;;;;5.38;2.92;;;20.90;78.80;;;;;;5015290;28;20356;-63
2023/07/25 05:05:54;;;;;;;6.03;2.80;;;20.90;78.90;;;;;;5014932;28;20101;-60
2023/07/25 05:08:20;;;;;;;4.85;2.90;;;20.90;79.00;;;;;;5015310;28;20065;-59
2023/07/25 05:10:46;;;;;;;5.93;2.70;;;20.90;79.10;;;;;;5015246;28;20034;-62
2023/07/25 05:13:13;;;;;;;6.32;3.55;;;20.90;79.10;;;;;;5015500;28;20030;-64
2023/07/25 05:15:39;;;;;;;9.25;3.80;;;20.90;79.10;;;;;;5015304;28;20088;-63
2023/07/25 05:18:04;;;;;;;8.10;3.92;;;20.90;79.10;;;;;;5015722;28;20033;-62
2023/07/25 05:20:30;;;;;;;6.78;3.10;;;20.90;79.10;;;;;;5015650;28;20022;-63
2023/07/25 05:22:56;;;;;;;5.72;3.40;;;20.90;79.20;;;;;;5015055;28;20034;-62
2023/07/25 05:25:22;;;;;;;6.30;2.97;;;20.90;79.20;;;;;;5015016;28;20072;-62
2023/07/25 05:27:48;;;;;;;7.90;3.30;;;20.90;79.20;;;;;;5015586;28;20022;-62
2023/07/25 05:30:15;;;;;;;7.72;3.50;;;21.00;79.20;;;;;;5015603;28;20451;-63
2023/07/25 05:32:41;;;;;;;5.50;3.22;;;21.00;79.20;;;;;;5015290;28;20037;-61
2023/07/25 05:35:07;;;;;;;8.13;3.60;;;21.00;79.20;;;;;;5014940;28;20033;-64
2023/07/25 05:37:38;;;;;;;6.38;3.28;;;21.10;79.20;;;;;;5015206;28;20093;-62
2023/07/25 05:40:05;;;;;;;9.23;3.78;;;21.20;79.20;;;;;;5014997;28;20054;-64
2023/07/25 05:42:31;;;;;;;15.15;3.92;;;21.30;78.90;;;;;;5014817;28;20025;-62
2023/07/25 05:44:59;;;;;;;5.75;3.13;;;21.40;79.00;;;;;;5014927;28;20095;-62
2023/07/25 05:47:25;;;;;;;7.70;3.55;;;21.40;78.90;;;;;;5015111;28;20509;-66
2023/07/25 05:49:51;;;;;;;9.38;4.40;;;21.50;78.80;;;;;;5016059;28;20033;-64
2023/07/25 05:52:17;;;;;;;9.90;4.43;;;21.70;78.60;;;;;;5018985;28;20047;-64
2023/07/25 05:54:44;;;;;;;9.63;4.07;;;22.00;78.50;;;;;;5017564;28;20029;-63
2023/07/25 05:57:10;;;;;;;10.43;4.70;;;22.50;77.80;;;;;;5018652;28;20061;-65
2023/07/25 05:59:36;;;;;;;9.27;4.00;;;22.90;77.00;;;;;;5018521;28;20128;-65
2023/07/25 06:02:04;;;;;;;9.00;4.30;;;23.30;76.20;;;;;;5018612;28;20029;-64
2023/07/25 06:04:30;;;;;;;8.10;3.97;;;23.60;75.60;;;;;;5018315;28;20030;-62
2023/07/25 06:06:56;;;;;;;10.48;4.63;;;23.90;74.90;;;;;;5018043;28;20072;-63
2023/07/25 06:09:22;;;;;;;8.02;4.15;;;24.40;74.10;;;;;;5018279;28;20026;-63
2023/07/25 06:11:48;;;;;;;7.85;3.80;;;24.60;73.50;;;;;;5018273;28;20037;-62
2023/07/25 06:14:14;;;;;;;8.40;3.90;;;24.90;72.90;;;;;;5018742;28;20072;-62
2023/07/25 06:16:40;;;;;;;7.40;3.55;;;25.10;72.40;;;;;;5018158;28;20419;-63
2023/07/25 06:19:06;;;;;;;7.30;4.00;;;25.40;72.10;;;;;;5018382;28;20029;-63
2023/07/25 06:21:33;;;;;;;8.05;4.00;;;26.00;71.20;;;;;;5017986;28;20037;-65
2023/07/25 06:23:59;;;;;;;9.60;4.50;;;26.90;69.70;;;;;;5018500;28;20022;-64
2023/07/25 06:26:25;;;;;;;12.00;4.97;;;27.50;67.30;;;;;;5018433;28;20161;-62
2023/07/25 06:28:52;;;;;;;7.90;4.18;;;27.40;65.60;;;;;;5018487;28;20022;-63
2023/07/25 06:31:18;;;;;;;9.88;4.35;;;27.00;66.00;;;;;;5018208;28;20030;-61
2023/07/25 06:33:44;;;;;;;5.90;3.90;;;26.40;67.10;;;;;;5017863;28;20109;-65
2023/07/25 06:36:10;;;;;;;7.53;4.00;;;25.90;68.20;;;;;;5018294;28;20104;-61
2023/07/25 06:38:36;;;;;;;7.95;3.95;;;25.50;69.20;;;;;;5017843;28;20619;-65
2023/07/25 06:41:02;;;;;;;8.30;4.35;;;25.20;70.00;;;;;;5018155;28;20034;-63
2023/07/25 06:43:28;;;;;;;8.43;4.00;;;24.90;70.70;;;;;;5017963;28;20036;-64
2023/07/25 06:45:54;;;;;;;8.73;4.03;;;24.60;71.40;;;;;;5016547;28;20026;-64
2023/07/25 06:48:20;;;;;;;8.95;4.03;;;24.40;72.20;;;;;;5018104;28;20029;-64
2023/07/25 06:50:46;;;;;;;7.65;4.05;;;24.20;72.70;;;;;;5017785;28;20073;-61
2023/07/25 06:53:12;;;;;;;9.93;4.43;;;24.10;73.20;;;;;;5017495;28;20494;-64
2023/07/25 06:55:38;;;;;;;8.73;4.32;;;23.90;73.50;;;;;;5017781;28;20087;-64
2023/07/25 06:58:04;;;;;;;10.73;4.80;;;23.80;74.00;;;;;;5017652;28;20057;-63
2023/07/25 07:00:31;;;;;;;9.63;4.95;;;23.70;74.30;;;;;;5017377;28;20033;-62
2023/07/25 07:02:56;;;;;;;10.15;5.20;;;23.60;74.70;;;;;;5017389;28;20113;-63
2023/07/25 07:05:22;;;;;;;11.35;5.82;;;23.60;74.80;;;;;;5017203;28;20094;-60
2023/07/25 07:07:48;;;;;;;10.30;5.15;;;23.60;75.00;;;;;;5016957;28;20136;-62
2023/07/25 07:10:14;;;;;;;11.02;5.15;;;23.70;75.20;;;;;;5017177;28;20104;-62
2023/07/25 07:12:46;;;;;;;8.35;4.70;;;23.70;75.20;;;;;;5017132;28;20535;-62
2023/07/25 07:15:14;;;;;;;13.27;5.90;;;23.90;75.30;;;;;;5017342;28;20053;-63
2023/07/25 07:17:41;;;;;;;9.10;5.30;;;24.00;75.00;;;;;;5016962;28;20060;-62
2023/07/25 07:20:08;;;;;;;9.48;4.75;;;24.30;74.60;;;;;;5017228;28;20076;-65
2023/07/25 07:22:33;;;;;;;9.88;5.68;;;24.40;74.40;;;;;;5016164;28;20030;-60
2023/07/25 07:25:00;;;;;;;9.50;5.90;;;24.70;73.90;;;;;;5016795;28;20084;-62
2023/07/25 07:27:26;;;;;;;10.27;4.93;;;24.90;73.40;;;;;;5016735;28;20459;-65
2023/07/25 07:29:54;;;;;;;8.48;5.35;;;25.00;73.10;;;;;;5016667;28;20355;-64
2023/07/25 07:32:20;;;;;;;10.02;6.07;;;25.00;73.00;;;;;;5016687;28;20034;-63
2023/07/25 07:34:46;;;;;;;9.43;4.60;;;25.10;72.90;;;;;;5017288;28;20037;-62
2023/07/25 07:37:13;;;;;;;8.68;4.57;;;25.00;72.90;;;;;;5016926;28;20030;-61
2023/07/25 07:39:39;;;;;;;10.18;5.93;;;25.10;72.90;;;;;;5016634;28;20029;-62
2023/07/25 07:42:05;;;;;;;10.65;5.95;;;25.00;72.80;;;;;;5016785;28;20066;-63
2023/07/25 07:44:31;;;;;;;11.35;6.60;;;24.90;72.80;;;;;;5016533;28;20111;-63
2023/07/25 07:46:57;;;;;;;12.77;7.90;;;24.90;73.00;;;;;;5016518;28;20014;-64
2023/07/25 07:49:23;;;;;;;13.10;7.22;;;24.80;73.30;;;;;;5016748;28;20022;-65
2023/07/25 07:51:49;;;;;;;15.52;7.05;;;24.70;73.40;;;;;;5016429;28;20448;-62
2023/07/25 07:54:15;;;;;;;11.85;6.95;;;24.50;73.50;;;;;;5016392;28;20041;-61
2023/07/25 07:56:41;;;;;;;11.50;6.47;;;24.50;73.80;;;;;;5016388;28;20026;-63
2023/07/25 07:59:08;;;;;;;13.00;6.25;;;24.40;73.80;;;;;;5016825;28;20097;-64
2023/07/25 08:01:34;;;;;;;10.15;5.50;;;24.40;73.80;;;;;;5016130;28;20034;-62
2023/07/25 08:04:00;;;;;;;13.52;6.88;;;24.40;73.80;;;;;;5016755;28;20017;-63
2023/07/25 08:06:28;;;;;;;13.15;7.05;;;24.40;73.80;;;;;;5015975;28;20052;-63
2023/07/25 08:08:54;;;;;;;14.82;7.13;;;24.30;73.70;;;;;;5016891;28;20026;-60
2023/07/25 08:11:20;;;;;;;8.52;5.47;;;24.20;74.00;;;;;;5016100;28;20030;-61
2023/07/25 08:13:46;;;;;;;9.18;5.47;;;24.00;74.30;;;;;;5015973;28;20080;-63
2023/07/25 08:16:11;;;;;;;9.48;5.97;;;24.00;74.60;;;;;;5014940;28;20025;-63
2023/07/25 08:18:37;;;;;;;8.77;5.35;;;23.90;74.70;;;;;;5015973;28;20498;-62
2023/07/25 08:21:04;;;;;;;8.63;5.07;;;23.90;74.90;;;;;;5015873;28;20041;-65
2023/07/25 08:23:30;;;;;;;13.07;6.05;;;23.80;75.20;;;;;;5014977;28;20124;-63
2023/07/25 08:25:57;;;;;;;9.35;5.65;;;23.90;75.70;;;;;;5016301;28;20424;-62
2023/07/25 08:28:23;;;;;;;11.48;5.95;;;23.90;75.70;;;;;;5015844;28;20026;-63
2023/07/25 08:31:02;;;;;;;13.07;7.50;;;23.80;75.80;;;;;;5015792;28;20321;-63
2023/07/25 08:33:32;;;;;;;15.45;7.95;;;23.80;76.00;;;;;;5016046;28;20102;-63
2023/07/25 08:35:59;;;;;;;13.65;8.30;;;23.60;76.50;;;;;;5015652;28;20108;-62
2023/07/25 08:38:25;;;;;;;15.55;7.97;;;23.40;77.00;;;;;;5015963;28;20022;-62
2023/07/25 08:41:15;;;;;;;15.70;8.25;;;23.10;77.60;;;;;;5015512;28;20033;-64
2023/07/25 08:43:43;;;;;;;14.35;7.72;;;22.90;78.00;;;;;;5015599;28;20470;-65
2023/07/25 08:46:13;;;;;;;12.23;6.93;;;22.70;78.20;;;;;;5015670;28;20022;-61
2023/07/25 08:48:41;;;;;;;15.85;6.45;;;22.60;78.30;;;;;;5016145;28;20022;-64
2023/07/25 08:51:15;;;;;;;12.65;7.35;;;22.60;78.50;;;;;;5015455;28;20125;-59
2023/07/25 08:54:02;;;;;;;11.27;7.32;;;22.60;78.70;;;;;;5015177;28;20061;-64
2023/07/25 08:56:29;;;;;;;14.73;8.55;;;22.50;78.80;;;;;;5015695;28;20026;-60
2023/07/25 08:58:57;;;;;;;13.48;8.02;;;22.40;79.70;;;;;;5015425;28;20022;-61
2023/07/25 09:01:24;;;;;;;16.33;7.65;;;22.20;80.70;;;;;;5015323;28;20057;-61
2023/07/25 09:03:52;;;;;;;12.43;6.95;;;22.00;80.90;;;;;;5015394;28;20025;-63
2023/07/25 09:06:20;;;;;;;11.27;6.47;;;21.90;80.40;;;;;;5015252;28;20372;-65
2023/07/25 09:08:46;;;;;;;11.20;5.80;;;21.90;80.40;;;;;;5016126;28;20079;-61
2023/07/25 09:11:16;;;;;;;8.95;5.43;;;21.90;80.40;;;;;;5015327;28;20022;-61
2023/07/25 09:13:42;;;;;;;11.43;5.40;;;21.90;80.40;;;;;;5015759;28;20433;-63
2023/07/25 09:16:15;;;;;;;13.65;6.63;;;22.00;80.40;;;;;;5015151;28;20045;-59
2023/07/25 09:18:42;;;;;;;11.77;6.05;;;22.00;80.40;;;;;;5015179;28;20029;-62
2023/07/25 09:21:08;;;;;;;13.10;6.60;;;22.10;80.30;;;;;;5015382;28;20033;-62
2023/07/25 09:23:34;;;;;;;12.27;5.95;;;22.10;80.20;;;;;;5015180;28;20056;-62
2023/07/25 09:26:06;;;;;;;11.15;5.72;;;22.00;80.10;;;;;;5019025;28;20026;-64
2023/07/25 09:28:33;;;;;;;11.40;6.90;;;22.10;80.10;;;;;;5019096;28;20038;-60
2023/07/25 09:31:04;;;;;;;12.68;7.05;;;22.10;80.40;;;;;;5001921;28;20026;-63
2023/07/25 09:33:30;;;;;;;12.20;7.90;;;22.10;80.10;;;;;;5019263;28;20076;-61
2023/07/25 09:35:57;;;;;;;12.45;6.18;;;22.10;80.20;;;;;;5017861;28;20030;-62
2023/07/25 09:38:23;;;;;;;13.93;7.13;;;22.20;80.30;;;;;;5018897;28;20090;-62
2023/07/25 09:40:50;;;;;;;11.77;7.88;;;22.20;80.30;;;;;;5018870;28;20034;-65
2023/07/25 09:43:26;;;;;;;13.25;8.77;;;22.30;80.30;;;;;;5018999;28;20103;-62
2023/07/25 09:45:53;;;;;;;13.73;7.47;;;22.40;80.30;;;;;;5019271;28;20098;-62
2023/07/25 09:48:19;;;;;;;11.45;6.97;;;22.40;80.20;;;;;;5018676;28;20097;-65
2023/07/25 09:50:45;;;;;;;12.27;7.38;;;22.60;80.20;;;;;;5017693;28;20424;-62
2023/07/25 09:53:13;;;;;;;15.93;7.22;;;22.80;80.00;;;;;;5018928;28;20038;-63
2023/07/25 09:55:40;;;;;;;10.43;6.28;;;23.10;80.10;;;;;;5018758;28;20021;-65
2023/07/25 09:58:06;;;;;;;11.32;5.65;;;23.40;79.80;;;;;;5017648;28;20352;-62
2023/07/25 10:00:32;;;;;;;10.80;6.35;;;23.70;79.30;;;;;;5018513;28;20022;-63
2023/07/25 10:02:59;;;;;;;11.93;6.28;;;24.00;79.00;;;;;;5018424;28;20029;-62
2023/07/25 10:05:28;;;;;;;11.45;6.00;;;24.30;78.50;;;;;;5018621;28;20014;-63
2023/07/25 10:07:59;;;;;;;8.40;5.50;;;24.60;77.90;;;;;;5017290;28;20060;-64
2023/07/25 10:10:26;;;;;;;7.03;4.43;;;24.80;77.50;;;;;;5018642;28;20129;-63
2023/07/25 10:12:55;;;;;;;9.45;5.60;;;24.90;77.20;;;;;;5018539;28;20108;-62
2023/07/25 10:15:21;;;;;;;8.45;5.10;;;24.90;76.50;;;;;;5018487;28;20050;-62
2023/07/25 10:17:48;;;;;;;8.65;4.72;;;25.00;75.30;;;;;;5018161;28;20044;-65
2023/07/25 10:20:24;;;;;;;8.35;4.80;;;25.10;74.70;;;;;;5018726;28;20037;-63
2023/07/25 10:23:09;;;;;;;6.75;4.40;;;25.30;74.50;;;;;;5018376;28;20124;-63
2023/07/25 10:25:35;;;;;;;9.68;5.40;;;25.40;74.40;;;;;;5018332;28;20073;-63
2023/07/25 10:28:03;;;;;;;7.45;4.80;;;25.60;73.90;;;;;;5018291;28;20022;-65
2023/07/25 10:30:31;;;;;;;6.50;3.72;;;25.60;73.40;;;;;;5018011;28;20022;-64
2023/07/25 10:33:02;;;;;;;9.48;4.45;;;25.70;73.40;;;;;;5017881;28;20018;-63
2023/07/25 10:35:52;;;;;;;7.65;3.70;;;25.90;73.40;;;;;;5016623;28;20367;-63
2023/07/25 10:38:35;;;;;;;9.38;4.20;;;26.00;73.50;;;;;;5018153;28;20029;-61
2023/07/25 10:41:22;;;;;;;8.07;4.10;;;26.20;72.10;;;;;;5017847;28;20356;-61
2023/07/25 10:43:53;;;;;;;8.38;4.40;;;26.10;71.00;;;;;;5018328;28;20030;-64
2023/07/25 10:48:50;;;;;;;6.97;4.20;;;26.00;70.90;;;;;;5018212;28;20513;-63
2023/07/25 10:51:39;;;;;;;7.10;3.75;;;26.00;71.00;;;;;;5017866;28;20022;-64
2023/07/25 10:54:10;;;;;;;6.05;3.47;;;26.00;70.80;;;;;;5017520;28;20076;-64
2023/07/25 10:56:40;;;;;;;7.57;3.38;;;26.20;70.80;;;;;;5018192;28;20033;-61
2023/07/25 10:59:12;;;;;;;6.70;3.28;;;26.30;70.00;;;;;;5018037;28;20029;-65
2023/07/25 11:01:47;;;;;;;7.30;3.78;;;26.40;69.70;;;;;;5017669;28;20030;-65
2023/07/25 11:04:25;;;;;;;7.03;3.50;;;26.40;69.40;;;;;;5017400;28;20026;-63
2023/07/25 11:06:53;;;;;;;5.05;3.47;;;26.50;69.00;;;;;;5016217;28;20046;-63
2023/07/25 11:09:21;;;;;;;4.97;3.33;;;26.60;68.80;;;;;;5017558;28;20050;-64
2023/07/25 11:11:49;;;;;;;6.63;3.33;;;26.60;68.80;;;;;;5017492;28;20088;-64
2023/07/25 11:14:17;;;;;;;5.45;3.83;;;26.70;68.30;;;;;;5016901;28;20057;-63
2023/07/25 11:16:47;;;;;;;4.07;3.20;;;26.70;67.80;;;;;;5016622;28;20025;-65
2023/07/25 11:19:14;;;;;;;5.60;3.50;;;26.80;67.60;;;;;;5017662;28;20051;-62
2023/07/25 11:21:42;;;;;;;5.03;3.20;;;26.90;67.00;;;;;;5017245;28;20030;-61
2023/07/25 11:24:09;;;;;;;4.80;3.15;;;26.90;66.50;;;;;;5017587;28;20032;-60
2023/07/25 11:26:38;;;;;;;6.45;3.22;;;27.00;66.50;;;;;;5017194;28;20080;-64
2023/07/25 11:29:06;;;;;;;6.60;3.58;;;27.10;66.10;;;;;;5017226;28;20049;-63
2023/07/25 11:31:33;;;;;;;6.07;3.40;;;27.10;65.30;;;;;;5016875;28;20036;-64
2023/07/25 11:34:18;;;;;;;5.97;3.60;;;27.20;65.20;;;;;;5017402;28;20041;-65
2023/07/25 11:36:44;;;;;;;5.53;3.20;;;27.30;64.40;;;;;;5016261;28;20028;-62
2023/07/25 11:39:12;;;;;;;4.03;2.80;;;27.30;64.00;;;;;;5015777;28;20132;-64
2023/07/25 11:44:12;;;;;;;5.35;3.00;;;27.50;64.00;;;;;;5017394;28;20447;-62
2023/07/25 11:46:54;;;;;;;6.28;3.00;;;27.50;62.70;;;;;;5016529;28;20387;-63
2023/07/25 11:49:21;;;;;;;5.78;2.65;;;27.50;62.40;;;;;;5016164;28;20118;-66
2023/07/25 11:51:47;;;;;;;4.72;2.92;;;27.50;62.30;;;;;;5015539;28;20080;-65
2023/07/25 11:54:15;;;;;;;4.78;2.95;;;27.60;62.10;;;;;;5016396;28;20424;-63
2023/07/25 11:56:45;;;;;;;4.05;2.72;;;27.70;62.00;;;;;;5015468;28;20018;-63
2023/07/25 11:59:12;;;;;;;5.45;3.15;;;27.70;62.30;;;;;;5016571;28;20041;-62
2023/07/25 12:01:44;;;;;;;4.15;2.83;;;27.80;61.40;;;;;;5015254;28;20112;-62
2023/07/25 12:04:15;;;;;;;5.00;3.15;;;27.90;61.40;;;;;;5016239;28;20037;-64
2023/07/25 12:06:42;;;;;;;5.97;3.40;;;27.90;60.90;;;;;;5015890;28;20467;-61
2023/07/25 12:09:08;;;;;;;6.78;3.38;;;27.90;60.80;;;;;;5015643;28;20032;-64
2023/07/25 12:11:44;;;;;;;5.50;3.55;;;27.90;61.50;;;;;;5015216;28;20022;-66
2023/07/25 12:14:12;;;;;;;5.57;3.60;;;27.90;62.00;;;;;;5016147;28;20034;-62
2023/07/25 12:16:43;;;;;;;5.65;3.60;;;27.90;62.30;;;;;;5015187;28;20076;-63
2023/07/25 12:19:14;;;;;;;8.75;3.60;;;28.00;62.30;;;;;;5016337;28;20470;-62
2023/07/25 12:21:43;;;;;;;6.80;3.78;;;27.90;62.10;;;;;;5016473;28;20455;-61
2023/07/25 12:24:12;;;;;;;7.78;3.95;;;27.90;62.00;;;;;;4998927;28;20452;-65
2023/07/25 12:26:54;;;;;;;8.02;3.75;;;28.00;62.20;;;;;;5015838;28;20085;-61
2023/07/25 12:29:24;;;;;;;7.18;3.83;;;28.00;62.20;;;;;;5016453;28;20061;-66
2023/07/25 12:31:55;;;;;;;6.45;3.55;;;28.00;62.20;;;;;;4999312;28;20047;-62
2023/07/25 12:34:28;;;;;;;6.57;3.90;;;28.00;61.90;;;;;;5015752;28;20096;-63
2023/07/25 12:36:55;;;;;;;5.38;3.80;;;28.00;61.80;;;;;;5015750;28;20463;-64
2023/07/25 12:39:22;;;;;;;8.95;4.78;;;28.00;62.20;;;;;;5015987;28;20033;-62
2023/07/25 12:41:48;;;;;;;7.82;4.18;;;28.00;62.30;;;;;;5015568;28;20037;-66
2023/07/25 12:44:15;;;;;;;7.88;4.20;;;28.00;62.30;;;;;;5015708;28;20021;-62
2023/07/25 12:46:41;;;;;;;7.38;4.07;;;27.90;62.50;;;;;;5015496;28;20034;-62
2023/07/25 12:49:07;;;;;;;5.90;4.05;;;28.00;62.80;;;;;;5015599;28;20037;-64
2023/07/25 12:51:33;;;;;;;6.57;4.03;;;28.00;62.90;;;;;;5015610;28;20085;-63
2023/07/25 12:54:02;;;;;;;7.18;3.88;;;28.10;62.30;;;;;;5014580;28;20053;-59
2023/07/25 12:56:28;;;;;;;7.35;4.40;;;28.10;62.60;;;;;;5015391;28;20025;-63
2023/07/25 12:58:54;;;;;;;6.18;4.18;;;28.10;62.70;;;;;;5014577;28;20048;-62
2023/07/25 13:01:21;;;;;;;9.70;4.63;;;28.20;62.40;;;;;;5015636;28;20076;-60
2023/07/25 13:03:47;;;;;;;9.13;4.82;;;28.20;62.20;;;;;;5015416;28;20108;-62
2023/07/25 13:06:13;;;;;;;7.90;4.63;;;28.30;62.60;;;;;;5015173;28;20049;-64
2023/07/25 13:08:38;;;;;;;9.60;5.05;;;28.30;62.90;;;;;;5015406;28;20030;-63